CFASQ KPWK-KTEB
Flight info
| Callsign | CFASQ |
|---|---|
| Flight time | N/A |
| Altitude | 39000 |
| Route | DUFEE LOGGR HAAKK DOXXY SOSIC JHW LVZ5 |
| Aircraft | E190/M-SDE3GILORVW/S |
Departure
| Time | 2026-04-27 13:42 |
|---|---|
| Airport | Chicago Executive Airport (KPWK) |
Arrival
| Time | N/A |
|---|---|
| Airport | Teterboro Airport (KTEB) |
| Time | Latitude | Longitude | Altitude | Speed | Heading |
|---|---|---|---|---|---|
| 2026-04-27 13:24 | 42.11640 | -87.90088 | 643 ft | 0 kts | 69° |
| 2026-04-27 13:38 | 42.11640 | -87.90087 | 643 ft | 0 kts | 69° |
| 2026-04-27 13:38 | 42.11653 | -87.90061 | 643 ft | 6 kts | 34° |
| 2026-04-27 13:38 | 42.11708 | -87.90073 | 643 ft | 9 kts | 338° |
| 2026-04-27 13:39 | 42.11724 | -87.90131 | 644 ft | 7 kts | 246° |
| 2026-04-27 13:39 | 42.11706 | -87.90199 | 644 ft | 7 kts | 270° |
| 2026-04-27 13:39 | 42.11756 | -87.90250 | 644 ft | 11 kts | 339° |
| 2026-04-27 13:39 | 42.11842 | -87.90296 | 644 ft | 15 kts | 338° |
| 2026-04-27 13:40 | 42.11962 | -87.90359 | 642 ft | 21 kts | 339° |
| 2026-04-27 13:40 | 42.12106 | -87.90436 | 641 ft | 23 kts | 338° |
| 2026-04-27 13:40 | 42.12260 | -87.90514 | 641 ft | 23 kts | 337° |
| 2026-04-27 13:40 | 42.12354 | -87.90570 | 642 ft | 9 kts | 311° |
| 2026-04-27 13:41 | 42.12343 | -87.90646 | 644 ft | 8 kts | 246° |
| 2026-04-27 13:41 | 42.12333 | -87.90675 | 644 ft | 5 kts | 244° |
| 2026-04-27 13:41 | 42.12298 | -87.90695 | 644 ft | 0 kts | 159° |
| 2026-04-27 13:41 | 42.12292 | -87.90691 | 644 ft | 10 kts | 160° |
| 2026-04-27 13:42 | 42.11884 | -87.90474 | 644 ft | 111 kts | 157° |
| 2026-04-27 13:42 | 42.10972 | -87.89977 | 992 ft | 157 kts | 156° |
| 2026-04-27 13:42 | 42.09994 | -87.89304 | 2054 ft | 163 kts | 143° |
| 2026-04-27 13:42 | 42.09405 | -87.88179 | 3029 ft | 161 kts | 114° |
| 2026-04-27 13:43 | 42.09283 | -87.86558 | 3614 ft | 192 kts | 102° |
| 2026-04-27 13:43 | 42.09255 | -87.84628 | 4145 ft | 225 kts | 96° |
| 2026-04-27 13:43 | 42.09315 | -87.82375 | 4624 ft | 255 kts | 95° |
| 2026-04-27 13:43 | 42.09388 | -87.79916 | 5180 ft | 266 kts | 95° |
| 2026-04-27 13:44 | 42.09461 | -87.77368 | 6084 ft | 282 kts | 94° |
| 2026-04-27 13:44 | 42.09537 | -87.74754 | 7293 ft | 283 kts | 94° |
| 2026-04-27 13:44 | 42.09612 | -87.72125 | 8463 ft | 284 kts | 95° |
| 2026-04-27 13:44 | 42.09684 | -87.69489 | 9498 ft | 288 kts | 94° |
| 2026-04-27 13:45 | 42.09757 | -87.66821 | 10395 ft | 294 kts | 95° |
| 2026-04-27 13:45 | 42.09831 | -87.64017 | 11086 ft | 309 kts | 94° |
| 2026-04-27 13:45 | 42.09910 | -87.61035 | 11613 ft | 328 kts | 93° |
| 2026-04-27 13:45 | 42.09993 | -87.57911 | 12087 ft | 348 kts | 93° |
| 2026-04-27 13:46 | 42.10082 | -87.54569 | 12686 ft | 363 kts | 92° |
| 2026-04-27 13:46 | 42.10172 | -87.51183 | 13545 ft | 368 kts | 92° |
| 2026-04-27 13:46 | 42.10261 | -87.47736 | 14459 ft | 371 kts | 92° |
| 2026-04-27 13:46 | 42.10350 | -87.44267 | 15316 ft | 375 kts | 91° |
| 2026-04-27 13:47 | 42.10437 | -87.40780 | 16135 ft | 379 kts | 91° |
| 2026-04-27 13:47 | 42.10526 | -87.37222 | 16897 ft | 384 kts | 91° |
| 2026-04-27 13:47 | 42.10614 | -87.33613 | 17602 ft | 391 kts | 91° |
| 2026-04-27 13:47 | 42.10703 | -87.29961 | 18299 ft | 397 kts | 91° |
| 2026-04-27 13:48 | 42.10793 | -87.26226 | 18982 ft | 403 kts | 91° |
| 2026-04-27 13:48 | 42.10881 | -87.22432 | 19721 ft | 407 kts | 90° |
| 2026-04-27 13:48 | 42.10970 | -87.18634 | 20431 ft | 412 kts | 90° |
| 2026-04-27 13:48 | 42.11059 | -87.14726 | 21136 ft | 416 kts | 90° |
| 2026-04-27 13:49 | 42.11147 | -87.10843 | 21787 ft | 421 kts | 90° |
| 2026-04-27 13:49 | 42.11234 | -87.06915 | 22425 ft | 426 kts | 90° |
| 2026-04-27 13:49 | 42.11375 | -87.02898 | 23090 ft | 429 kts | 89° |
| 2026-04-27 13:49 | 42.11526 | -86.98871 | 23726 ft | 434 kts | 89° |
| 2026-04-27 13:50 | 42.11676 | -86.94781 | 24273 ft | 440 kts | 89° |
| 2026-04-27 13:50 | 42.11825 | -86.90688 | 24832 ft | 445 kts | 89° |
| 2026-04-27 13:50 | 42.11975 | -86.86508 | 25426 ft | 450 kts | 88° |
| 2026-04-27 13:50 | 42.12127 | -86.82279 | 25948 ft | 456 kts | 88° |
| 2026-04-27 13:51 | 42.12278 | -86.77995 | 26524 ft | 461 kts | 88° |
| 2026-04-27 13:51 | 42.12429 | -86.73684 | 27085 ft | 465 kts | 88° |
| 2026-04-27 13:51 | 42.12577 | -86.69385 | 27668 ft | 468 kts | 88° |
| 2026-04-27 13:51 | 42.12728 | -86.64980 | 28185 ft | 474 kts | 88° |
| 2026-04-27 13:52 | 42.12879 | -86.60516 | 28712 ft | 478 kts | 88° |
| 2026-04-27 13:52 | 42.13028 | -86.56078 | 29356 ft | 479 kts | 88° |
| 2026-04-27 13:52 | 42.13176 | -86.51607 | 30072 ft | 479 kts | 88° |
| 2026-04-27 13:52 | 42.13320 | -86.47163 | 30730 ft | 479 kts | 88° |
| 2026-04-27 13:53 | 42.13609 | -86.38148 | 31892 ft | 483 kts | 88° |
| 2026-04-27 13:53 | 42.13750 | -86.33646 | 32433 ft | 486 kts | 88° |
| 2026-04-27 13:53 | 42.13894 | -86.29050 | 32976 ft | 488 kts | 88° |
| 2026-04-27 13:54 | 42.14034 | -86.24490 | 33461 ft | 491 kts | 88° |
| 2026-04-27 13:54 | 42.14175 | -86.19808 | 33938 ft | 494 kts | 88° |
| 2026-04-27 13:54 | 42.14315 | -86.15142 | 34539 ft | 495 kts | 88° |
| 2026-04-27 13:54 | 42.14446 | -86.10477 | 35171 ft | 495 kts | 89° |
| 2026-04-27 13:55 | 42.14410 | -86.05779 | 35794 ft | 496 kts | 91° |
| 2026-04-27 13:55 | 42.14374 | -86.01124 | 36437 ft | 496 kts | 91° |
| 2026-04-27 13:55 | 42.14343 | -85.96456 | 37097 ft | 495 kts | 91° |
| 2026-04-27 13:55 | 42.14308 | -85.91768 | 37675 ft | 496 kts | 90° |
| 2026-04-27 13:56 | 42.14275 | -85.87129 | 38182 ft | 498 kts | 91° |
| 2026-04-27 13:56 | 42.14238 | -85.82452 | 38679 ft | 500 kts | 91° |
| 2026-04-27 13:56 | 42.14200 | -85.77761 | 39020 ft | 503 kts | 90° |
| 2026-04-27 13:57 | 42.14115 | -85.68173 | 39049 ft | 523 kts | 91° |
| 2026-04-27 13:57 | 42.14019 | -85.58345 | 39049 ft | 529 kts | 90° |
| 2026-04-27 13:58 | 42.13917 | -85.48505 | 39056 ft | 524 kts | 90° |
| 2026-04-27 13:58 | 42.13806 | -85.38702 | 39056 ft | 526 kts | 91° |
| 2026-04-27 13:59 | 42.13685 | -85.28841 | 39047 ft | 527 kts | 91° |
| 2026-04-27 13:59 | 42.13555 | -85.18976 | 39048 ft | 524 kts | 91° |
| 2026-04-27 14:00 | 42.13419 | -85.09184 | 39061 ft | 526 kts | 90° |
| 2026-04-27 14:00 | 42.13265 | -84.99343 | 39058 ft | 527 kts | 91° |
| 2026-04-27 14:01 | 42.13091 | -84.89516 | 39074 ft | 526 kts | 90° |
| 2026-04-27 14:01 | 42.12909 | -84.79713 | 39074 ft | 524 kts | 91° |
| 2026-04-27 14:02 | 42.12719 | -84.69912 | 39078 ft | 524 kts | 90° |
| 2026-04-27 14:02 | 42.12520 | -84.60061 | 39091 ft | 525 kts | 90° |
| 2026-04-27 14:03 | 42.12312 | -84.50164 | 39106 ft | 527 kts | 89° |
| 2026-04-27 14:03 | 42.13017 | -84.40511 | 39113 ft | 521 kts | 78° |
| 2026-04-27 14:04 | 42.14114 | -84.30849 | 39098 ft | 521 kts | 78° |
| 2026-04-27 14:04 | 42.15183 | -84.21274 | 39102 ft | 521 kts | 78° |
| 2026-04-27 14:05 | 42.16253 | -84.11626 | 39108 ft | 519 kts | 78° |
| 2026-04-27 14:05 | 42.17305 | -84.02052 | 39105 ft | 520 kts | 78° |
| 2026-04-27 14:06 | 42.18353 | -83.92444 | 39110 ft | 521 kts | 77° |
| 2026-04-27 14:06 | 42.19394 | -83.82822 | 39120 ft | 521 kts | 78° |
| 2026-04-27 14:07 | 42.20424 | -83.73207 | 39125 ft | 519 kts | 77° |
| 2026-04-27 14:07 | 42.21442 | -83.63640 | 39134 ft | 516 kts | 77° |
| 2026-04-27 14:08 | 42.22458 | -83.54029 | 39141 ft | 517 kts | 78° |
| 2026-04-27 14:08 | 42.23018 | -83.44389 | 39157 ft | 519 kts | 86° |
| 2026-04-27 14:09 | 42.23104 | -83.34592 | 39148 ft | 517 kts | 86° |
| 2026-04-27 14:09 | 42.23181 | -83.24859 | 39147 ft | 519 kts | 86° |
| 2026-04-27 14:10 | 42.23248 | -83.15163 | 39155 ft | 516 kts | 86° |
| 2026-04-27 14:10 | 42.23309 | -83.05421 | 39161 ft | 520 kts | 86° |
| 2026-04-27 14:11 | 42.23362 | -82.95729 | 39161 ft | 517 kts | 86° |
| 2026-04-27 14:11 | 42.23405 | -82.86043 | 39168 ft | 516 kts | 86° |
| 2026-04-27 14:12 | 42.23440 | -82.76347 | 39172 ft | 516 kts | 86° |
| 2026-04-27 14:12 | 42.23469 | -82.66700 | 39161 ft | 515 kts | 86° |
| 2026-04-27 14:13 | 42.23488 | -82.57008 | 39166 ft | 517 kts | 86° |
| 2026-04-27 14:13 | 42.23499 | -82.47380 | 39169 ft | 516 kts | 85° |
| 2026-04-27 14:14 | 42.23501 | -82.37697 | 39175 ft | 515 kts | 85° |
| 2026-04-27 14:14 | 42.23497 | -82.28094 | 39165 ft | 516 kts | 86° |
| 2026-04-27 14:15 | 42.23483 | -82.18438 | 39169 ft | 515 kts | 86° |
| 2026-04-27 14:15 | 42.23462 | -82.08795 | 39171 ft | 513 kts | 86° |
| 2026-04-27 14:16 | 42.23433 | -81.99187 | 39175 ft | 515 kts | 86° |
| 2026-04-27 14:16 | 42.23395 | -81.89531 | 39177 ft | 512 kts | 85° |
| 2026-04-27 14:17 | 42.23349 | -81.79868 | 39172 ft | 512 kts | 85° |
| 2026-04-27 14:17 | 42.23297 | -81.70264 | 39164 ft | 515 kts | 85° |
| 2026-04-27 14:18 | 42.23235 | -81.60648 | 39182 ft | 513 kts | 85° |
| 2026-04-27 14:18 | 42.23166 | -81.51039 | 39180 ft | 515 kts | 86° |
| 2026-04-27 14:19 | 42.23090 | -81.41442 | 39101 ft | 513 kts | 85° |
| 2026-04-27 14:19 | 42.23003 | -81.31848 | 39245 ft | 513 kts | 86° |
| 2026-04-27 14:20 | 42.22909 | -81.22211 | 39106 ft | 511 kts | 86° |
| 2026-04-27 14:20 | 42.22808 | -81.12601 | 39189 ft | 513 kts | 85° |
| 2026-04-27 14:21 | 42.22698 | -81.02949 | 39184 ft | 513 kts | 85° |
| 2026-04-27 14:21 | 42.22580 | -80.93370 | 39193 ft | 510 kts | 85° |
| 2026-04-27 14:22 | 42.22456 | -80.83741 | 39192 ft | 513 kts | 85° |
| 2026-04-27 14:22 | 42.22322 | -80.74161 | 39197 ft | 512 kts | 85° |
| 2026-04-27 14:23 | 42.22181 | -80.64613 | 39201 ft | 510 kts | 85° |
| 2026-04-27 14:23 | 42.22034 | -80.55093 | 39201 ft | 509 kts | 85° |
| 2026-04-27 14:24 | 42.21877 | -80.45621 | 39209 ft | 507 kts | 84° |
| 2026-04-27 14:24 | 42.21713 | -80.36037 | 39210 ft | 509 kts | 84° |
| 2026-04-27 14:25 | 42.21541 | -80.26508 | 39202 ft | 507 kts | 85° |
| 2026-04-27 14:25 | 42.21362 | -80.17068 | 39204 ft | 507 kts | 85° |
| 2026-04-27 14:26 | 42.21177 | -80.07581 | 39210 ft | 508 kts | 85° |
| 2026-04-27 14:26 | 42.20983 | -79.98133 | 39209 ft | 505 kts | 86° |
| 2026-04-27 14:27 | 42.20780 | -79.88693 | 39211 ft | 504 kts | 85° |
| 2026-04-27 14:27 | 42.20572 | -79.79248 | 39208 ft | 506 kts | 85° |
| 2026-04-27 14:28 | 42.20354 | -79.69825 | 39209 ft | 501 kts | 85° |
| 2026-04-27 14:28 | 42.20131 | -79.60452 | 39214 ft | 499 kts | 85° |
| 2026-04-27 14:29 | 42.19904 | -79.51122 | 39212 ft | 502 kts | 85° |
| 2026-04-27 14:29 | 42.19664 | -79.41804 | 39237 ft | 497 kts | 84° |
| 2026-04-27 14:30 | 42.19420 | -79.32433 | 39229 ft | 498 kts | 85° |
| 2026-04-27 14:30 | 42.19170 | -79.23190 | 39239 ft | 497 kts | 85° |
| 2026-04-27 14:31 | 42.18778 | -79.13923 | 39232 ft | 503 kts | 92° |
| 2026-04-27 14:31 | 42.16994 | -79.04741 | 39239 ft | 509 kts | 103° |
| 2026-04-27 14:32 | 42.14763 | -78.95705 | 39229 ft | 510 kts | 103° |
| 2026-04-27 14:32 | 42.12506 | -78.86687 | 39230 ft | 510 kts | 103° |
| 2026-04-27 14:33 | 42.10263 | -78.77770 | 39228 ft | 507 kts | 104° |
| 2026-04-27 14:33 | 42.07995 | -78.68777 | 39235 ft | 510 kts | 103° |
| 2026-04-27 14:34 | 42.05729 | -78.59834 | 39234 ft | 510 kts | 104° |
| 2026-04-27 14:34 | 42.03436 | -78.50829 | 39238 ft | 505 kts | 103° |
| 2026-04-27 14:35 | 42.01162 | -78.41917 | 39247 ft | 507 kts | 103° |
| 2026-04-27 14:35 | 41.98891 | -78.33054 | 39243 ft | 506 kts | 103° |
| 2026-04-27 14:36 | 41.96600 | -78.24148 | 39245 ft | 504 kts | 103° |
| 2026-04-27 14:36 | 41.94310 | -78.15279 | 39249 ft | 504 kts | 103° |
| 2026-04-27 14:37 | 41.92029 | -78.06477 | 39251 ft | 503 kts | 103° |
| 2026-04-27 14:37 | 41.89715 | -77.97574 | 39249 ft | 506 kts | 103° |
| 2026-04-27 14:38 | 41.87410 | -77.88747 | 39241 ft | 506 kts | 103° |
| 2026-04-27 14:38 | 41.85078 | -77.79848 | 39242 ft | 503 kts | 103° |
| 2026-04-27 14:39 | 41.82769 | -77.71071 | 39245 ft | 501 kts | 103° |
| 2026-04-27 14:39 | 41.80439 | -77.62241 | 39247 ft | 505 kts | 103° |
| 2026-04-27 14:40 | 41.78100 | -77.53413 | 39255 ft | 504 kts | 103° |
| 2026-04-27 14:40 | 41.75773 | -77.44656 | 39266 ft | 504 kts | 103° |
| 2026-04-27 14:41 | 41.73417 | -77.35828 | 39271 ft | 502 kts | 103° |
| 2026-04-27 14:41 | 41.71079 | -77.27096 | 39216 ft | 500 kts | 103° |
| 2026-04-27 14:41 | 41.69908 | -77.22737 | 38595 ft | 493 kts | 103° |
| 2026-04-27 14:42 | 41.68767 | -77.18492 | 37725 ft | 489 kts | 103° |
| 2026-04-27 14:42 | 41.67627 | -77.14264 | 37076 ft | 481 kts | 103° |
| 2026-04-27 14:42 | 41.66494 | -77.10063 | 36375 ft | 477 kts | 103° |
| 2026-04-27 14:42 | 41.65388 | -77.05979 | 36116 ft | 465 kts | 103° |
| 2026-04-27 14:43 | 41.64273 | -77.01852 | 35711 ft | 475 kts | 103° |
| 2026-04-27 14:43 | 41.63142 | -76.97680 | 35208 ft | 481 kts | 103° |
| 2026-04-27 14:43 | 41.62013 | -76.93529 | 34687 ft | 482 kts | 103° |
| 2026-04-27 14:43 | 41.60860 | -76.89293 | 34094 ft | 480 kts | 104° |
| 2026-04-27 14:44 | 41.59729 | -76.85147 | 33476 ft | 479 kts | 104° |
| 2026-04-27 14:44 | 41.58594 | -76.80990 | 32869 ft | 476 kts | 104° |
| 2026-04-27 14:44 | 41.57458 | -76.76837 | 32262 ft | 477 kts | 104° |
| 2026-04-27 14:44 | 41.56338 | -76.72750 | 31675 ft | 475 kts | 104° |
| 2026-04-27 14:45 | 41.55201 | -76.68605 | 31065 ft | 475 kts | 105° |
| 2026-04-27 14:45 | 41.54065 | -76.64474 | 30465 ft | 472 kts | 104° |
| 2026-04-27 14:45 | 41.52956 | -76.60449 | 29871 ft | 464 kts | 104° |
| 2026-04-27 14:45 | 41.51848 | -76.56430 | 29255 ft | 459 kts | 105° |
| 2026-04-27 14:46 | 41.50750 | -76.52460 | 28647 ft | 453 kts | 104° |
| 2026-04-27 14:46 | 41.49665 | -76.48539 | 28030 ft | 450 kts | 104° |
| 2026-04-27 14:46 | 41.48603 | -76.44704 | 27437 ft | 446 kts | 104° |
| 2026-04-27 14:46 | 41.47525 | -76.40819 | 26838 ft | 442 kts | 104° |
| 2026-04-27 14:47 | 41.46467 | -76.37013 | 26228 ft | 439 kts | 104° |
| 2026-04-27 14:47 | 41.45422 | -76.33263 | 25678 ft | 431 kts | 105° |
| 2026-04-27 14:47 | 41.44378 | -76.29516 | 25184 ft | 430 kts | 105° |
| 2026-04-27 14:47 | 41.43337 | -76.25788 | 24736 ft | 426 kts | 105° |
| 2026-04-27 14:48 | 41.42319 | -76.22148 | 24277 ft | 423 kts | 105° |
| 2026-04-27 14:48 | 41.40271 | -76.14840 | 23359 ft | 417 kts | 104° |
| 2026-04-27 14:48 | 41.39260 | -76.11237 | 22899 ft | 414 kts | 105° |
| 2026-04-27 14:49 | 41.38266 | -76.07703 | 22454 ft | 411 kts | 105° |
| 2026-04-27 14:49 | 41.37273 | -76.04174 | 22004 ft | 408 kts | 105° |
| 2026-04-27 14:49 | 41.36284 | -76.00670 | 21549 ft | 402 kts | 105° |
| 2026-04-27 14:49 | 41.35302 | -75.97192 | 21092 ft | 399 kts | 105° |
| 2026-04-27 14:50 | 41.34332 | -75.93765 | 20651 ft | 396 kts | 105° |
| 2026-04-27 14:50 | 41.33375 | -75.90382 | 20205 ft | 394 kts | 105° |
| 2026-04-27 14:50 | 41.32408 | -75.86972 | 19753 ft | 389 kts | 105° |
| 2026-04-27 14:50 | 41.31467 | -75.83656 | 19308 ft | 387 kts | 105° |
| 2026-04-27 14:51 | 41.30525 | -75.80344 | 18885 ft | 384 kts | 106° |
| 2026-04-27 14:51 | 41.29581 | -75.77029 | 18494 ft | 382 kts | 106° |